createdAt,value
2022-09-20T00:01:12.758Z,1.2
2022-09-20T00:03:15.783Z,2.2
2022-09-20T00:05:23.712Z,0.7
2022-09-20T00:07:26.785Z,1.5
2022-09-20T00:09:29.886Z,1
2022-09-20T00:11:32.987Z,1.6
2022-09-20T00:13:36.119Z,0.7
2022-09-20T00:15:39.243Z,1.4
2022-09-20T00:17:42.350Z,0.9
2022-09-20T00:19:48.682Z,1.1
2022-09-20T00:21:51.788Z,1
2022-09-20T00:23:54.903Z,1.4
2022-09-20T00:25:58.036Z,1.4
2022-09-20T00:28:01.141Z,0.8
2022-09-20T00:30:04.277Z,1.3
2022-09-20T00:32:07.490Z,1.1
2022-09-20T00:36:16.812Z,1.3
2022-09-20T00:41:26.219Z,0.6
2022-09-20T00:43:29.339Z,0.8
2022-09-20T00:45:32.495Z,1
2022-09-20T00:47:38.792Z,1.1
2022-09-20T00:49:41.929Z,1
2022-09-20T00:51:45.040Z,1.7
2022-09-20T00:53:48.165Z,0.9
2022-09-20T00:55:51.297Z,1.3
2022-09-20T00:59:57.526Z,1
2022-09-20T01:02:03.953Z,1.1
2022-09-20T01:06:10.164Z,0.9
2022-09-20T01:08:13.210Z,0.5
2022-09-20T01:10:16.344Z,0.9
2022-09-20T01:12:19.435Z,0.5
2022-09-20T01:14:22.564Z,0.3
2022-09-20T01:16:28.924Z,1.2
2022-09-20T01:18:32.020Z,1.6
2022-09-20T01:20:35.129Z,0.9
2022-09-20T01:22:38.274Z,0.6
2022-09-20T01:28:47.619Z,0.8
2022-09-20T01:30:53.936Z,0.3
2022-09-20T01:32:57.079Z,0.6
2022-09-20T01:35:00.193Z,0.7
2022-09-20T01:36:03.343Z,0.7
2022-09-20T01:38:06.463Z,1.4
2022-09-20T01:40:09.690Z,0.8
2022-09-20T01:42:12.703Z,0.8
2022-09-20T01:44:19.032Z,0.5
2022-09-20T01:46:22.188Z,1.4
2022-09-20T01:48:25.278Z,0.3
2022-09-20T01:50:29.332Z,0.1
2022-09-20T01:52:32.456Z,0.4
2022-09-20T01:56:38.685Z,0.9
2022-09-20T01:58:46.893Z,0.9
2022-09-20T02:00:48.255Z,0.1
2022-09-20T02:02:51.341Z,0.5
2022-09-20T02:04:54.384Z,0.7
2022-09-20T02:06:57.503Z,1
2022-09-20T02:09:00.619Z,0.1
2022-09-20T02:11:03.742Z,0.4
2022-09-20T02:13:10.064Z,0.2
2022-09-20T02:15:13.206Z,0.4
2022-09-20T02:19:19.428Z,0.2
2022-09-20T02:21:22.532Z,0.3
2022-09-20T02:23:25.649Z,0.5
2022-09-20T02:25:28.782Z,0.2
2022-09-20T02:27:35.119Z,1.2
2022-09-20T02:29:38.239Z,0.6
2022-09-20T02:31:41.424Z,0.6
2022-09-20T02:34:03.392Z,0.5
2022-09-20T02:36:06.486Z,0.6
2022-09-20T02:38:09.604Z,1.7
2022-09-20T02:40:16.029Z,0.8
2022-09-20T02:42:19.079Z,0.6
2022-09-20T02:44:22.228Z,1.4
2022-09-20T02:46:25.321Z,1.5
2022-09-20T02:48:28.443Z,1.6
2022-09-20T02:50:31.566Z,1.8
2022-09-20T02:52:34.678Z,2.2
2022-09-20T02:54:41.004Z,2.1
2022-09-20T02:56:44.122Z,0.9
2022-09-20T02:58:47.228Z,1.6
2022-09-20T03:06:59.762Z,3.2
2022-09-20T03:09:06.068Z,0.4
2022-09-20T03:11:09.191Z,1.9
2022-09-20T03:13:12.307Z,0.5
2022-09-20T03:17:18.563Z,1.2
2022-09-20T03:21:24.803Z,2
2022-09-20T03:23:31.120Z,1.7
2022-09-20T03:25:34.251Z,0.8
2022-09-20T03:27:37.376Z,1.4
2022-09-20T03:28:40.513Z,1.1
2022-09-20T03:30:43.639Z,1.8
2022-09-20T03:32:46.785Z,1.6
2022-09-20T03:36:56.221Z,1.5
2022-09-20T03:38:59.342Z,2
2022-09-20T03:41:02.472Z,1.8
2022-09-20T03:43:05.579Z,1.4
2022-09-20T03:45:08.711Z,2.2
2022-09-20T03:47:11.846Z,1.5
2022-09-20T03:49:14.971Z,1.3
2022-09-20T03:51:21.303Z,0.9
2022-09-20T03:53:24.399Z,1
2022-09-20T03:55:27.547Z,1.6
2022-09-20T03:57:30.649Z,1.7
2022-09-20T03:59:33.786Z,0.8
2022-09-20T04:01:36.925Z,3.6
2022-09-20T04:03:40.008Z,2.3
2022-09-20T04:07:49.426Z,0.9
2022-09-20T04:13:58.797Z,1.4
2022-09-20T04:16:01.914Z,1.6
2022-09-20T04:18:05.027Z,1.6
2022-09-20T04:20:11.396Z,1.6
2022-09-20T04:25:20.768Z,2.7
2022-09-20T04:27:23.890Z,1.9
2022-09-20T04:29:27.011Z,1.4
2022-09-20T04:33:36.429Z,1
2022-09-20T04:35:39.562Z,1.1
2022-09-20T04:37:42.645Z,1.6
2022-09-20T04:39:45.778Z,1.4
2022-09-20T04:43:51.988Z,0.8
2022-09-20T04:45:55.160Z,0.7
2022-09-20T04:48:01.438Z,0.5
2022-09-20T04:50:04.550Z,1.1
2022-09-20T04:54:10.782Z,0.9
2022-09-20T04:56:13.899Z,0.4
2022-09-20T05:02:26.538Z,0.7
2022-09-20T05:06:32.696Z,0.2
2022-09-20T05:12:42.060Z,1.2
2022-09-20T05:16:51.516Z,0.3
2022-09-20T05:18:54.603Z,0.5
2022-09-20T05:24:03.979Z,0.7
2022-09-20T05:26:07.109Z,1
2022-09-20T05:28:10.234Z,1.6
2022-09-20T05:30:16.558Z,0.6
2022-09-20T05:32:19.658Z,2.6
2022-09-20T05:34:22.767Z,1.2
2022-09-20T05:36:25.882Z,2.2
2022-09-20T05:40:32.201Z,1.2
2022-09-20T05:42:35.219Z,0.9
2022-09-20T05:44:41.547Z,1.2
2022-09-20T05:46:44.677Z,0.6
2022-09-20T05:48:47.790Z,1.8
2022-09-20T05:50:50.897Z,0.8
2022-09-20T05:52:54.002Z,1.1
2022-09-20T05:54:57.110Z,0.6
2022-09-20T05:57:00.237Z,1.1
2022-09-20T05:59:09.962Z,2.1
2022-09-20T06:01:11.262Z,1.3
2022-09-20T06:03:14.293Z,1.1
2022-09-20T06:05:17.427Z,2
2022-09-20T06:07:20.541Z,1.3
2022-09-20T06:09:23.660Z,1.6
2022-09-20T06:11:26.775Z,2
2022-09-20T06:13:33.088Z,1.5
2022-09-20T06:15:36.220Z,1.7
2022-09-20T06:17:39.338Z,1.4
2022-09-20T06:22:04.325Z,2.3
2022-09-20T06:24:07.439Z,1
2022-09-20T06:26:13.754Z,1.6
2022-09-20T06:28:16.884Z,0.8
2022-09-20T06:30:20.046Z,1.2
2022-09-20T06:34:26.235Z,0.5
2022-09-20T06:36:29.366Z,1
2022-09-20T06:38:32.505Z,0.9
2022-09-20T06:40:38.872Z,3.6
2022-09-20T06:42:41.935Z,0.8
2022-09-20T06:44:45.055Z,0.7
2022-09-20T06:46:48.157Z,0.3
2022-09-20T06:48:51.276Z,0.6
2022-09-20T06:50:54.399Z,0.4
2022-09-20T06:52:57.539Z,0.5
2022-09-20T06:55:03.856Z,1.4
2022-09-20T06:57:06.973Z,0.6
2022-09-20T06:59:10.099Z,0.1
2022-09-20T07:01:13.341Z,0.1
2022-09-20T07:03:16.334Z,0.2
2022-09-20T07:07:22.577Z,0.2
2022-09-20T07:09:28.929Z,0.2
2022-09-20T07:11:32.031Z,0.4
2022-09-20T07:13:35.179Z,0.3
2022-09-20T07:14:38.327Z,0.8
2022-09-20T07:16:41.507Z,0.1
2022-09-20T07:18:44.574Z,0.6
2022-09-20T07:20:47.693Z,0.8
2022-09-20T07:22:54.054Z,0.6
2022-09-20T07:24:57.184Z,0.1
2022-09-20T07:29:03.431Z,0.2
2022-09-20T07:31:06.559Z,0.7
2022-09-20T07:33:09.689Z,0.5
2022-09-20T07:35:12.812Z,0.6
2022-09-20T07:37:19.144Z,0.1
2022-09-20T07:39:22.263Z,0.2
2022-09-20T07:41:25.398Z,0.1
2022-09-20T07:43:28.525Z,0
2022-09-20T07:45:31.685Z,0.4
2022-09-20T07:47:34.764Z,0.6
2022-09-20T07:49:37.883Z,0
2022-09-20T07:51:44.240Z,0
2022-09-20T07:53:47.367Z,0
2022-09-20T07:55:50.514Z,0.2
2022-09-20T07:57:53.615Z,0
2022-09-20T07:59:56.734Z,0.1
2022-09-20T08:01:59.916Z,0.2
2022-09-20T08:04:03.015Z,0.1
2022-09-20T08:06:09.375Z,0
2022-09-20T08:08:12.516Z,0
2022-09-20T08:10:15.640Z,0
2022-09-20T08:11:18.815Z,1.3
2022-09-20T08:15:25.079Z,0
2022-09-20T08:17:28.218Z,0.1
2022-09-20T08:19:34.576Z,0
2022-09-20T08:21:37.690Z,0.4
2022-09-20T08:23:40.823Z,0.4
2022-09-20T08:25:44.043Z,0
2022-09-20T08:27:46.869Z,0
2022-09-20T08:29:49.927Z,0
2022-09-20T08:31:52.999Z,0
2022-09-20T08:36:02.239Z,0.1
2022-09-20T08:44:14.564Z,0
2022-09-20T08:46:22.898Z,0
2022-09-20T08:48:23.846Z,0
2022-09-20T08:50:26.869Z,0
2022-09-20T08:52:29.952Z,0
2022-09-20T08:54:32.928Z,0
2022-09-20T08:56:35.975Z,0
2022-09-20T08:58:39.023Z,0
2022-09-20T09:00:42.149Z,0
2022-09-20T09:02:48.396Z,0.1
2022-09-20T09:04:51.529Z,0
2022-09-20T09:06:54.673Z,0
2022-09-20T09:07:57.746Z,0.2
2022-09-20T09:10:00.773Z,0
2022-09-20T09:12:03.797Z,0
2022-09-20T09:14:06.838Z,0
2022-09-20T09:16:13.135Z,0.9
2022-09-20T09:18:16.127Z,0
2022-09-20T09:20:19.137Z,0.2
2022-09-20T09:22:22.171Z,0.2
2022-09-20T09:24:25.181Z,0
2022-09-20T09:26:28.234Z,5.4
2022-09-20T09:28:31.233Z,0
2022-09-20T09:30:37.389Z,0.5
2022-09-20T09:34:43.435Z,0
2022-09-20T09:36:46.454Z,0
2022-09-20T09:38:49.474Z,0
2022-09-20T09:40:52.485Z,0
2022-09-20T09:42:55.498Z,0
2022-09-20T09:45:01.671Z,0.3
2022-09-20T09:47:04.680Z,0.1
2022-09-20T09:49:10.109Z,0
2022-09-20T09:51:10.705Z,0
2022-09-20T09:53:13.718Z,0
2022-09-20T09:55:16.722Z,0
2022-09-20T09:57:19.748Z,0
2022-09-20T09:59:25.882Z,0
2022-09-20T10:01:33.062Z,0
2022-09-20T10:03:31.916Z,0.1
2022-09-20T10:05:55.651Z,0
2022-09-20T10:07:58.671Z,0
2022-09-20T10:12:07.835Z,0.3
2022-09-20T10:14:10.849Z,0
2022-09-20T10:16:13.940Z,0.1
2022-09-20T10:18:16.871Z,0
2022-09-20T10:20:19.895Z,0
2022-09-20T10:22:22.903Z,0
2022-09-20T10:24:25.904Z,0.5
2022-09-20T10:26:32.033Z,0.1
2022-09-20T10:28:35.045Z,0
2022-09-20T10:30:38.070Z,0
2022-09-20T10:32:41.025Z,0
2022-09-20T10:34:44.007Z,0
2022-09-20T10:40:56.146Z,0
2022-09-20T10:42:59.151Z,0
2022-09-20T10:45:02.141Z,0
2022-09-20T10:47:05.145Z,0
2022-09-20T10:49:08.137Z,0
2022-09-20T10:51:11.136Z,0.1
2022-09-20T10:53:14.120Z,0
2022-09-20T10:55:20.225Z,0.1
2022-09-20T10:57:23.242Z,0.1
2022-09-20T10:59:26.247Z,0.1
2022-09-20T11:00:29.309Z,0.4
2022-09-20T11:02:32.341Z,0
2022-09-20T11:04:35.294Z,0
2022-09-20T11:06:38.291Z,0.1
2022-09-20T11:08:44.398Z,0.1
2022-09-20T11:10:47.381Z,0
2022-09-20T11:14:53.351Z,0
2022-09-20T11:16:56.394Z,0
2022-09-20T11:18:59.311Z,1.6
2022-09-20T11:21:02.312Z,0
2022-09-20T11:23:08.414Z,0.2
2022-09-20T11:27:14.353Z,0
2022-09-20T11:31:20.439Z,0.1
2022-09-20T11:33:23.303Z,0.1
2022-09-20T11:35:26.302Z,0
2022-09-20T11:37:32.402Z,0
2022-09-20T11:39:35.394Z,0
2022-09-20T11:45:44.546Z,0.1
2022-09-20T11:47:54.941Z,0
2022-09-20T11:51:56.384Z,0
2022-09-20T11:53:59.377Z,0
2022-09-20T11:56:03.948Z,0
2022-09-20T11:57:06.971Z,0.1
2022-09-20T11:59:09.933Z,0.1
2022-09-20T12:01:12.947Z,0
2022-09-20T12:03:16.018Z,0.6
2022-09-20T12:05:22.025Z,0
2022-09-20T12:07:25.042Z,0.1
2022-09-20T12:11:31.049Z,0.1
2022-09-20T12:13:34.046Z,0
2022-09-20T12:15:37.066Z,0
2022-09-20T12:25:55.290Z,0.1
2022-09-20T12:32:04.374Z,0.3
2022-09-20T12:36:13.448Z,0
2022-09-20T12:42:22.469Z,0.1
2022-09-20T12:44:25.481Z,0
2022-09-20T12:46:28.502Z,0
2022-09-20T12:48:34.636Z,0.3
2022-09-20T12:50:37.639Z,0
2022-09-20T12:52:40.674Z,0
2022-09-20T12:53:43.747Z,0.1
2022-09-20T12:55:46.726Z,0
2022-09-20T12:57:49.801Z,0
2022-09-20T12:59:52.767Z,0
2022-09-20T13:01:58.931Z,0.1
2022-09-20T13:04:01.918Z,0
2022-09-20T13:06:04.927Z,0
2022-09-20T13:08:07.939Z,0
2022-09-20T13:10:10.946Z,0.1
2022-09-20T13:12:13.968Z,0
2022-09-20T13:14:16.970Z,0
2022-09-20T13:16:23.161Z,0
2022-09-20T13:18:26.152Z,0
2022-09-20T13:20:29.161Z,0.1
2022-09-20T13:24:35.207Z,0
2022-09-20T13:26:38.229Z,0
2022-09-20T13:28:41.188Z,0
2022-09-20T13:30:47.296Z,0.9
2022-09-20T13:32:50.245Z,0.1
2022-09-20T13:34:53.214Z,0
2022-09-20T13:36:56.552Z,0
2022-09-20T13:38:59.901Z,0
2022-09-20T13:41:01.993Z,0
2022-09-20T13:43:22.587Z,0
2022-09-20T13:45:11.387Z,0
2022-09-20T13:49:17.103Z,0
2022-09-20T13:51:46.245Z,0
2022-09-20T13:53:49.105Z,0.1
2022-09-20T13:55:51.955Z,0
2022-09-20T13:57:57.945Z,0.6
2022-09-20T14:00:00.775Z,0
2022-09-20T14:02:04.153Z,1
2022-09-20T14:10:15.394Z,0
2022-09-20T14:12:21.376Z,0.2
2022-09-20T14:16:27.057Z,0.2
2022-09-20T14:18:29.893Z,0
2022-09-20T14:20:32.732Z,0
2022-09-20T14:24:38.419Z,0
2022-09-20T14:26:44.380Z,0
2022-09-20T14:28:47.227Z,0.1
2022-09-20T14:30:50.083Z,0
2022-09-20T14:32:52.894Z,0
2022-09-20T14:34:55.737Z,0
2022-09-20T14:36:58.557Z,0.1
2022-09-20T14:39:01.386Z,0
2022-09-20T14:41:07.369Z,0
2022-09-20T14:43:10.187Z,0.1
2022-09-20T14:45:13.020Z,0
2022-09-20T14:46:15.981Z,0.1
2022-09-20T14:48:18.823Z,0.2
2022-09-20T14:50:21.624Z,0.3
2022-09-20T14:54:30.434Z,0
2022-09-20T14:56:33.285Z,0.1
2022-09-20T14:58:36.133Z,0
2022-09-20T15:00:39.059Z,0.4
2022-09-20T15:02:41.908Z,0
2022-09-20T15:04:44.750Z,0
2022-09-20T15:06:47.608Z,0
2022-09-20T15:08:53.624Z,0
2022-09-20T15:10:56.540Z,0.1
2022-09-20T15:12:59.429Z,0.1
2022-09-20T15:15:02.336Z,0.1
2022-09-20T15:17:05.216Z,0.1
2022-09-20T15:19:09.009Z,0.5
2022-09-20T15:21:11.868Z,0.6
2022-09-20T15:23:17.885Z,0
2022-09-20T15:25:20.785Z,0
2022-09-20T15:29:26.568Z,0
2022-09-20T15:31:29.515Z,0
2022-09-20T15:35:35.234Z,0.2
2022-09-20T15:41:47.024Z,0
2022-09-20T15:42:50.044Z,0
2022-09-20T15:44:52.930Z,0
2022-09-20T15:46:55.788Z,0
2022-09-20T15:48:58.672Z,0
2022-09-20T15:51:04.681Z,0.1
2022-09-20T15:53:07.546Z,0
2022-09-20T15:55:10.453Z,0
2022-09-20T15:57:13.328Z,0.1
2022-09-20T15:59:16.184Z,0
2022-09-20T16:01:19.121Z,0.1
2022-09-20T16:03:21.969Z,0.2
2022-09-20T16:05:28.001Z,0.4
2022-09-20T16:11:36.681Z,0.2
2022-09-20T16:13:39.553Z,2
2022-09-20T16:15:42.445Z,5
2022-09-20T16:17:45.362Z,0.6
2022-09-20T16:26:00.188Z,0
2022-09-20T16:28:03.148Z,0
2022-09-20T16:32:09.056Z,0.1
2022-09-20T16:34:15.172Z,0.1
2022-09-20T16:36:18.126Z,0.1
2022-09-20T16:39:24.174Z,0
2022-09-20T16:41:27.191Z,0.1
2022-09-20T16:43:30.185Z,0
2022-09-20T16:47:39.356Z,0.1
2022-09-20T16:49:42.379Z,0
2022-09-20T16:53:48.417Z,0.1
2022-09-20T16:55:51.435Z,0
2022-09-20T16:57:54.456Z,0.1
2022-09-20T17:04:06.785Z,0.1
2022-09-20T17:06:09.731Z,0.1
2022-09-20T17:08:12.758Z,0
2022-09-20T17:10:15.797Z,4.9
2022-09-20T17:12:18.842Z,1.4
2022-09-20T17:14:21.911Z,0.6
2022-09-20T17:16:28.107Z,1.2
2022-09-20T17:18:31.087Z,0.9
2022-09-20T17:20:34.246Z,0.3
2022-09-20T17:22:37.378Z,0.1
2022-09-20T17:24:40.404Z,0.9
2022-09-20T17:26:43.585Z,1.8
2022-09-20T17:28:46.721Z,3.9
2022-09-20T17:30:53.085Z,2.5
2022-09-20T17:32:56.227Z,1.9
2022-09-20T17:34:59.371Z,2
2022-09-20T17:37:29.161Z,0.1
2022-09-20T17:39:32.302Z,0.2
2022-09-20T17:41:35.443Z,0.3
2022-09-20T17:43:41.829Z,0
2022-09-20T17:45:44.998Z,0.1
2022-09-20T17:47:48.126Z,0.5
2022-09-20T17:49:52.841Z,0.1
2022-09-20T17:51:55.959Z,0.6
2022-09-20T17:53:59.109Z,0.1
2022-09-20T17:56:02.272Z,0.2
2022-09-20T17:58:08.612Z,0.1
2022-09-20T18:00:11.760Z,0.6
2022-09-20T18:02:14.918Z,0.1
2022-09-20T18:04:18.060Z,0.4
2022-09-20T18:06:21.396Z,0.1
2022-09-20T18:08:24.356Z,0.2
2022-09-20T18:10:27.480Z,0.7
2022-09-20T18:12:33.816Z,0.2
2022-09-20T18:14:36.973Z,0.6
2022-09-20T18:16:40.147Z,1.4
2022-09-20T18:18:43.318Z,1.5
2022-09-20T18:20:46.436Z,1
2022-09-20T18:22:49.576Z,0.7
2022-09-20T18:24:52.736Z,0.9
2022-09-20T18:26:59.077Z,0.7
2022-09-20T18:29:02.235Z,0.1
2022-09-20T18:31:05.482Z,0.2
2022-09-20T18:32:08.557Z,2.4
2022-09-20T18:34:11.699Z,0.1
2022-09-20T18:36:14.872Z,0.3
2022-09-20T18:38:18.011Z,0.4
2022-09-20T18:40:24.406Z,0.2
2022-09-20T18:42:27.540Z,0.4
2022-09-20T18:44:30.676Z,0.1
2022-09-20T18:46:33.880Z,0.5
2022-09-20T18:48:36.977Z,0.2
2022-09-20T18:50:40.112Z,1.2
2022-09-20T18:52:43.257Z,0.5
2022-09-20T18:54:49.606Z,0.2
2022-09-20T18:56:52.763Z,0.2
2022-09-20T18:58:55.907Z,0.7
2022-09-20T19:00:59.132Z,0.1
2022-09-20T19:03:04.729Z,0.3
2022-09-20T19:05:05.336Z,1.4
2022-09-20T19:07:08.492Z,0.6
2022-09-20T19:09:14.842Z,0.4
2022-09-20T19:11:18.000Z,0.3
2022-09-20T19:13:21.143Z,1
2022-09-20T19:15:24.276Z,0.5
2022-09-20T19:17:27.432Z,0.6
2022-09-20T19:19:30.587Z,0.4
2022-09-20T19:21:33.740Z,1
2022-09-20T19:23:40.089Z,0.2
2022-09-20T19:25:43.226Z,0.7
2022-09-20T19:27:46.384Z,0.6
2022-09-20T19:28:49.575Z,1.2
2022-09-20T19:30:52.717Z,0.1
2022-09-20T19:32:55.867Z,0.1
2022-09-20T19:34:59.031Z,0.3
2022-09-20T19:37:05.388Z,0.2
2022-09-20T19:39:08.601Z,0.4
2022-09-20T19:41:11.659Z,0.3
2022-09-20T19:43:14.820Z,0.3
2022-09-20T19:51:30.631Z,0.6
2022-09-20T19:55:36.920Z,3
2022-09-20T19:57:40.051Z,0.6
2022-09-20T19:59:43.201Z,0.2
2022-09-20T20:01:46.405Z,0.2
2022-09-20T20:03:49.507Z,0.4
2022-09-20T20:07:58.994Z,0.5
2022-09-20T20:10:02.143Z,0.5
2022-09-20T20:12:05.292Z,0.1
2022-09-20T20:14:08.444Z,0.1
2022-09-20T20:16:11.737Z,0.2
2022-09-20T20:18:16.779Z,0.3
2022-09-20T20:20:21.068Z,0.5
2022-09-20T20:25:30.536Z,0.7
2022-09-20T20:27:33.682Z,0.5
2022-09-20T20:29:36.836Z,0.5
2022-09-20T20:33:46.318Z,0.5
2022-09-20T20:35:49.454Z,0.4
2022-09-20T20:37:52.593Z,0.3
2022-09-20T20:39:55.748Z,0.1
2022-09-20T20:44:02.050Z,0.1
2022-09-20T20:48:11.535Z,0.1
2022-09-20T20:50:14.695Z,0.3
2022-09-20T20:54:20.960Z,0.4
2022-09-20T20:58:27.248Z,1.1
2022-09-20T21:00:30.388Z,6
2022-09-20T21:02:36.807Z,1.7
2022-09-20T21:04:39.913Z,0.9
2022-09-20T21:06:43.062Z,0.5
2022-09-20T21:08:49.256Z,1.2
2022-09-20T21:10:49.354Z,1.1
2022-09-20T21:14:55.608Z,0.6
2022-09-20T21:21:08.270Z,1.1
2022-09-20T21:23:38.149Z,0.5
2022-09-20T21:25:41.288Z,1.5
2022-09-20T21:27:44.448Z,0.5
2022-09-20T21:29:50.799Z,0.7
2022-09-20T21:31:53.952Z,1
2022-09-20T21:33:57.182Z,0.4
2022-09-20T21:36:00.203Z,0.3
2022-09-20T21:38:03.353Z,1.1
2022-09-20T21:40:06.540Z,1.8
2022-09-20T21:42:09.621Z,1.6
2022-09-20T21:44:16.024Z,0.5
2022-09-20T21:46:19.280Z,0.9
2022-09-20T21:48:22.270Z,0.8
2022-09-20T21:56:34.824Z,1
2022-09-20T21:58:41.174Z,2.1
2022-09-20T22:00:44.322Z,3.1
2022-09-20T22:02:47.517Z,6.1
2022-09-20T22:04:50.590Z,4.6
2022-09-20T22:08:56.873Z,4.6
2022-09-20T22:11:00.011Z,4.5
2022-09-20T22:15:09.513Z,3.9
2022-09-20T22:17:12.611Z,4.4
2022-09-20T22:18:15.790Z,4.9
2022-09-20T22:20:18.921Z,4.2
2022-09-20T22:22:22.064Z,5.8
2022-09-20T22:24:25.233Z,4.8
2022-09-20T22:26:31.543Z,3.3
2022-09-20T22:30:37.908Z,2.9
2022-09-20T22:32:40.944Z,1.8
2022-09-20T22:34:44.093Z,0.7
2022-09-20T22:36:47.244Z,2.8
2022-09-20T22:38:50.354Z,0.8
2022-09-20T22:40:56.704Z,0.4
2022-09-20T22:42:59.833Z,0.4
2022-09-20T22:45:02.977Z,0.2
2022-09-20T22:47:06.123Z,1.1
2022-09-20T22:49:09.221Z,0.1
2022-09-20T22:51:12.357Z,0.3
2022-09-20T22:53:15.467Z,0.4
2022-09-20T22:55:21.838Z,0.8
2022-09-20T22:57:24.951Z,0.1
2022-09-20T22:59:28.091Z,0.1
2022-09-20T23:01:31.292Z,0.4
2022-09-20T23:03:34.412Z,0.3
2022-09-20T23:05:37.484Z,0.1
2022-09-20T23:07:40.624Z,1.1
2022-09-20T23:09:46.965Z,0.3
2022-09-20T23:11:50.090Z,0.2
2022-09-20T23:13:53.232Z,0.4
2022-09-20T23:14:56.411Z,0.3
2022-09-20T23:16:59.627Z,0.9
2022-09-20T23:19:02.678Z,2.4
2022-09-20T23:21:05.803Z,0.4
2022-09-20T23:23:12.159Z,1.8
2022-09-20T23:25:15.289Z,0.7
2022-09-20T23:27:18.417Z,1.2
2022-09-20T23:29:21.552Z,0.5
2022-09-20T23:31:24.675Z,0.9
2022-09-20T23:33:27.788Z,0.9
2022-09-20T23:35:30.934Z,0.5
2022-09-20T23:37:37.281Z,0.9
2022-09-20T23:39:40.420Z,0.6
2022-09-20T23:41:48.373Z,1
2022-09-20T23:43:46.580Z,1
2022-09-20T23:45:51.346Z,0.6
2022-09-20T23:47:54.389Z,0.4
2022-09-20T23:49:57.526Z,0.2
2022-09-20T23:52:03.870Z,0.6
2022-09-20T23:54:07.010Z,0.7
2022-09-20T23:56:10.261Z,0.5
2022-09-20T23:58:13.274Z,0.6
